WetterOnline ( http://www.wetteronline.de )

Wetter aktuell Walldorf

Aktuelles Wetter: Mannheim (100m)

6-stündlich | Neueste Meldungen
Ortszeit Temperatur Wetter
Sa, 18.08. 14:00 25.8° C wolkenlos
Sa, 18.08. 8:00 17.7° C wolkenlos
Sa, 18.08. 2:00 19.0° C wolkenlos
Fr, 17.08. 20:00 26.5° C bewölkt
Fr, 17.08. 14:00 29.9° C wolkenlos
Fr, 17.08. 8:00 19.5° C leicht bewölkt
Fr, 17.08. 2:00 18.7° C wolkig
Do, 16.08. 20:00 29.6° C leicht bewölkt
Ortszeit Temperatur Wetter
Sa, 18.08. 19:30 27.6° C leicht bewölkt
Sa, 18.08. 19:20 27.6° C leicht bewölkt
Sa, 18.08. 19:10 27.7° C leicht bewölkt
Sa, 18.08. 19:00 27.8° C leicht bewölkt
Sa, 18.08. 18:50 27.8° C leicht bewölkt
Sa, 18.08. 18:40 28.3° C leicht bewölkt
Sa, 18.08. 18:30 28.0° C wolkig
Sa, 18.08. 18:00 28.1° C leicht bewölkt
Sa, 18.08. 17:30 28.4° C wolkig
Sa, 18.08. 17:00 27.8° C leicht bewölkt
Sa, 18.08. 16:30 28.0° C wolkenlos
Ortszeit Relative Feuchte Sichtweite
Sa, 18.08. 14:00 43% 17 km
Sa, 18.08. 8:00 74% 19 km
Sa, 18.08. 2:00 72% 19 km
Fr, 17.08. 20:00 49% 35 km
Fr, 17.08. 14:00 37% 25 km
Fr, 17.08. 8:00 67% 23 km
Fr, 17.08. 2:00 71% 40 km
Do, 16.08. 20:00 32% 70 km
Ortszeit Relative Feuchte Sichtweite
Sa, 18.08. 19:30 31% 60 km
Sa, 18.08. 19:20 31% -
Sa, 18.08. 19:10 31% -
Sa, 18.08. 19:00 31% 50 km
Sa, 18.08. 18:50 31% -
Sa, 18.08. 18:40 31% -
Sa, 18.08. 18:30 31% 40 km
Sa, 18.08. 18:00 31% 40 km
Sa, 18.08. 17:30 31% 45 km
Sa, 18.08. 17:00 32% 26 km
Sa, 18.08. 16:30 33% 30 km
Ortszeit Niederschlagsmenge Niederschlagsart
Sa, 18.08. 14:00 0.0 l/m2 in 6 Std. -
Sa, 18.08. 8:00 0.0 l/m2 in 12 Std. -
Sa, 18.08. 2:00 0.0 l/m2 in 6 Std. -
Fr, 17.08. 20:00 0.0 l/m2 in 12 Std. -
Fr, 17.08. 14:00 0.0 l/m2 in 6 Std. -
Fr, 17.08. 8:00 0.0 l/m2 in 12 Std. -
Fr, 17.08. 2:00 0.0 l/m2 in 6 Std. -
Do, 16.08. 20:00 0.0 l/m2 in 12 Std. -
Ortszeit Niederschlagsmenge Niederschlagsart
Sa, 18.08. 19:30 0.0 l/m2 in 1 Std. -
Sa, 18.08. 19:20 keine Meldung -
Sa, 18.08. 19:10 keine Meldung -
Sa, 18.08. 19:00 0.0 l/m2 in 1 Std. -
Sa, 18.08. 18:50 keine Meldung -
Sa, 18.08. 18:40 keine Meldung -
Sa, 18.08. 18:30 0.0 l/m2 in 1 Std. -
Sa, 18.08. 18:00 0.0 l/m2 in 1 Std. -
Sa, 18.08. 17:30 0.0 l/m2 in 1 Std. -
Sa, 18.08. 17:00 0.0 l/m2 in 1 Std. -
Sa, 18.08. 16:30 0.0 l/m2 in 1 Std. -
Ortszeit Stärke Spitze Richtung
km/h Bft. km/h Grad Sektor
Sa, 18.08. 14:00 13 3 24 260° W
Sa, 18.08. 8:00 7 2 14 350° N
Sa, 18.08. 2:00 7 2 32 320° NW
Fr, 17.08. 20:00 18 3 32 320° NW
Fr, 17.08. 14:00 11 2 29 350° N
Fr, 17.08. 8:00 4 1 7 20° N
Fr, 17.08. 2:00 4 1 7 50° NO
Do, 16.08. 20:00 4 1 25 190° S
Ortszeit Stärke Spitze Richtung
km/h Bft. km/h Grad Sektor
Sa, 18.08. 19:30 9 2 15 350° N
Sa, 18.08. 19:20 9 2 - 350° N
Sa, 18.08. 19:10 9 2 - 340° N
Sa, 18.08. 19:00 6 1 17 310° NW
Sa, 18.08. 18:50 6 1 - 310° NW
Sa, 18.08. 18:40 4 1 - 260° W
Sa, 18.08. 18:30 7 2 18 330° NW
Sa, 18.08. 18:00 7 2 22 240° SW
Sa, 18.08. 17:30 9 2 20 270° W
Sa, 18.08. 17:00 9 2 24 270° W
Sa, 18.08. 16:30 9 2 24 310° NW
Ortszeit Untergrenze Bedeckung Gattung
total tief tief mittel hoch
Sa, 18.08. 14:00 - 0/8 0/8 - - -
Sa, 18.08. 8:00 - 0/8 0/8 - - -
Sa, 18.08. 2:00 3300 m 0/8 0/8 - - -
Fr, 17.08. 20:00 5100 m 7/8 8/8 - - -
Fr, 17.08. 14:00 - 0/8 0/8 - - -
Fr, 17.08. 8:00 2400 m 6/8 1/8 - - -
Fr, 17.08. 2:00 9000 m 8/8 0/8 - - -
Do, 16.08. 20:00 9000 m 4/8 0/8 - - -
Ortszeit Bedeckungsgrad in Achtel und Wolkenuntergrenze
Sa, 18.08. 19:30 6(10500m)
Sa, 18.08. 19:20 6(10500m)
Sa, 18.08. 19:10 4(10500m)
Sa, 18.08. 19:00 1(3000m) 4(10500m)
Sa, 18.08. 18:50 1(3000m) 4(10500m)
Sa, 18.08. 18:40 1(2700m) 3(10500m)
Sa, 18.08. 18:30 8(10500m) 6(10500m)
Sa, 18.08. 18:00 4(10500m)
Sa, 18.08. 17:30 8(10500m)
Sa, 18.08. 17:00 4(10500m)
Sa, 18.08. 16:30 keine Wolken
Ortszeit Luftdruck NN (hPa) Tendenz (hPa in 3 Std.)
Sa, 18.08. 14:00 1021 - 0,6
Sa, 18.08. 8:00 1022 + 0,8
Sa, 18.08. 2:00 1020 + 1,0
Fr, 17.08. 20:00 1016 + 1,4
Fr, 17.08. 14:00 1014 - 0,7
Fr, 17.08. 8:00 1014 + 1,1
Fr, 17.08. 2:00 1013 0,0
Do, 16.08. 20:00 1013 - 1,1
Ortszeit Luftdruck NN (hPa) Tendenz (hPa in 3 Std.)
Sa, 18.08. 19:30 1020 - 0,6
Sa, 18.08. 19:20 1020 keine Meldung
Sa, 18.08. 19:10 1020 keine Meldung
Sa, 18.08. 19:00 1020 - 0,9
Sa, 18.08. 18:50 1020 keine Meldung
Sa, 18.08. 18:40 1019 keine Meldung
Sa, 18.08. 18:30 1020 - 1,0
Sa, 18.08. 18:00 1020 - 1,1
Sa, 18.08. 17:30 1020 - 1,2
Sa, 18.08. 17:00 1020 - 1,4
Sa, 18.08. 16:30 1020 - 1,4
Ortszeit Schneehöhe (cm)
Sa, 18.08. 14:00 -
Sa, 18.08. 8:00 -
Sa, 18.08. 2:00 -
Fr, 17.08. 20:00 -
Fr, 17.08. 14:00 -
Fr, 17.08. 8:00 -
Fr, 17.08. 2:00 -
Do, 16.08. 20:00 -
Ortszeit Schneehöhe (cm)
Sa, 18.08. 19:30 -
Sa, 18.08. 19:20 -
Sa, 18.08. 19:10 -
Sa, 18.08. 19:00 -
Sa, 18.08. 18:50 -
Sa, 18.08. 18:40 -
Sa, 18.08. 18:30 -
Sa, 18.08. 18:00 -
Sa, 18.08. 17:30 -
Sa, 18.08. 17:00 -
Sa, 18.08. 16:30 -
Link zu dieser Seite / Seite empfehlen

Das Wetter in ...